Flight Number: EUR1561 Duration: 6:00
Departure: Jeddah King Abdul Aziz (OEJN) at 00:00 Distance: 2544 Nm
Arrival: Gatwick Airport (EGKK) at 06:00 Equipment: B777

Weather Information
Jeddah King Abdul Aziz International Airport , Saudi Arabia (OEJN) 21-42N 039-11E 17M Nov 19, 2017 - 10:00 PM EST / 2017.11.20 0300 UTC
Wind: from the SE (140 degrees) at 12 MPH (10 KT):0
Visibility: greater than 7 mile(s):0 Temperature: 82 F (28 C) Dew Point: 69 F (21 C) Relative Humidity: 65% Pressure (altimeter): 29.85 in. Hg (1011 hPa)
ob: OEJN 200300Z 14010KT CAVOK 28/21 Q1011 NOSIG cycle: 3
Sunrise: 03:40 Sunset: 14:37 (UTC)

London / Gatwick Airport, United Kingdom (EGKK) 51-09N 000-11W 0M Nov 19, 2017 - 10:20 PM EST / 2017.11.20 0320 UTC
Wind: from the NNE (030 degrees) at 1 MPH (1 KT):0
Visibility: greater than 7 mile(s):0
Sky conditions: mostly cloudy Temperature: 39 F (4 C) Dew Point: 37 F (3 C) Relative Humidity: 93% Pressure (altimeter): 30.09 in. Hg (1019 hPa)
ob: EGKK 200320Z 03001KT 9999 BKN022 04/03 Q1019 cycle: 3
Sunrise: 07:31 Sunset: 16:01 (UTC)

TAF:2017/11/20 03:31 TAF AMD EGKK 200311Z 2003/2106 VRB03KT 9999 BKN025 TEMPO 2003/2014 BKN013 PROB30 TEMPO 2003/2006 7000 -RADZ BKN008 BECMG 2006/2009 24010KT BECMG 2014/2017 BKN012 TEMPO 2014/2103 8000 -RA PROB40 TEMPO 2021/2103 4000 RADZ BKN006 BECMG 2103/2106 BKN025

Previous Pireps for this route
Date Aircraft Flight time Fuel used Landing rate On time
2015-04-03B757-20007.2210Charter
2016-01-26B7775.32155672-391Yes
2016-05-15B7776.091367440Charter
(pireps marked green are flown by you)

Route map